createdAt,value
2022-09-20T00:01:48.153Z,15.79
2022-09-20T00:04:16.796Z,15.76
2022-09-20T00:06:45.480Z,15.74
2022-09-20T00:09:14.267Z,15.73
2022-09-20T00:11:43.401Z,15.69
2022-09-20T00:14:12.864Z,15.66
2022-09-20T00:16:42.182Z,15.64
2022-09-20T00:19:22.525Z,15.62
2022-09-20T00:21:51.109Z,15.57
2022-09-20T00:24:20.485Z,15.47
2022-09-20T00:26:49.815Z,15.39
2022-09-20T00:29:18.580Z,15.37
2022-09-20T00:31:47.543Z,15.36
2022-09-20T00:34:35.126Z,15.35
2022-09-20T00:37:03.814Z,15.35
2022-09-20T00:39:32.398Z,15.34
2022-09-20T00:42:01.082Z,15.33
2022-09-20T00:44:48.322Z,15.30
2022-09-20T00:47:32.904Z,15.27
2022-09-20T00:50:27.460Z,15.23
2022-09-20T00:53:02.803Z,15.19
2022-09-20T00:55:32.465Z,15.17
2022-09-20T00:58:01.776Z,15.12
2022-09-20T01:00:32.007Z,15.08
2022-09-20T01:03:06.776Z,15.07
2022-09-20T01:05:37.895Z,15.07
2022-09-20T01:08:07.617Z,15.05
2022-09-20T01:10:37.125Z,15.03
2022-09-20T01:13:06.273Z,15.00
2022-09-20T01:15:37.644Z,14.99
2022-09-20T01:18:09.018Z,14.97
2022-09-20T01:20:42.416Z,14.93
2022-09-20T01:23:48.654Z,14.86
2022-09-20T01:26:20.057Z,14.82
2022-09-20T01:28:52.993Z,14.77
2022-09-20T01:31:27.167Z,14.70
2022-09-20T01:34:09.913Z,14.65
2022-09-20T01:36:55.638Z,14.63
2022-09-20T01:39:39.274Z,14.60
2022-09-20T01:42:15.163Z,14.61
2022-09-20T01:44:49.941Z,14.59
2022-09-20T01:47:33.903Z,14.58
2022-09-20T01:50:26.457Z,14.57
2022-09-20T01:53:33.746Z,14.54
2022-09-20T01:56:05.401Z,14.49
2022-09-20T01:58:40.024Z,14.49
2022-09-20T02:01:11.623Z,14.47
2022-09-20T02:04:20.813Z,14.44
2022-09-20T02:07:17.764Z,14.43
2022-09-20T02:10:28.031Z,14.39
2022-09-20T02:13:01.434Z,14.36
2022-09-20T02:15:45.569Z,14.33
2022-09-20T02:18:40.983Z,14.30
2022-09-20T02:21:22.266Z,14.25
2022-09-20T02:23:57.073Z,14.18
2022-09-20T02:26:47.904Z,14.15
2022-09-20T02:29:47.616Z,14.13
2022-09-20T02:32:26.859Z,14.14
2022-09-20T02:35:09.920Z,14.17
2022-09-20T02:38:16.141Z,14.20
2022-09-20T02:41:02.104Z,14.18
2022-09-20T02:43:46.078Z,14.19
2022-09-20T02:46:25.695Z,14.22
2022-09-20T02:49:12.738Z,14.25
2022-09-20T02:51:47.056Z,14.29
2022-09-20T02:54:34.594Z,14.30
2022-09-20T02:57:08.086Z,14.27
2022-09-20T02:59:47.365Z,14.25
2022-09-20T03:02:30.736Z,14.23
2022-09-20T03:05:30.566Z,14.21
2022-09-20T03:08:34.488Z,14.19
2022-09-20T03:11:40.956Z,14.17
2022-09-20T03:14:25.720Z,14.18
2022-09-20T03:17:10.683Z,14.17
2022-09-20T03:20:02.752Z,14.18
2022-09-20T03:23:00.489Z,14.21
2022-09-20T03:26:05.219Z,14.23
2022-09-20T03:28:58.584Z,14.26
2022-09-20T03:32:02.159Z,14.28
2022-09-20T03:34:59.205Z,14.31
2022-09-20T03:37:43.090Z,14.32
2022-09-20T03:40:24.334Z,14.33
2022-09-20T03:42:54.837Z,14.33
2022-09-20T03:45:38.774Z,14.32
2022-09-20T03:48:23.195Z,14.32
2022-09-20T03:50:54.541Z,14.29
2022-09-20T03:53:29.168Z,14.27
2022-09-20T03:56:25.605Z,14.25
2022-09-20T03:59:05.367Z,14.24
2022-09-20T04:01:51.608Z,14.23
2022-09-20T04:04:48.807Z,14.21
2022-09-20T04:07:33.677Z,14.18
2022-09-20T04:10:14.546Z,14.15
2022-09-20T04:12:52.243Z,14.13
2022-09-20T04:15:31.888Z,14.11
2022-09-20T04:18:04.162Z,14.08
2022-09-20T04:20:52.097Z,14.06
2022-09-20T04:23:56.070Z,14.04
2022-09-20T04:26:31.433Z,14.04
2022-09-20T04:29:10.043Z,14.06
2022-09-20T04:32:02.961Z,14.08
2022-09-20T04:35:12.716Z,14.07
2022-09-20T04:37:44.113Z,14.07
2022-09-20T04:40:37.148Z,14.06
2022-09-20T04:43:35.872Z,14.04
2022-09-20T04:46:56.227Z,14.01
2022-09-20T04:50:12.869Z,13.97
2022-09-20T04:53:26.942Z,13.99
2022-09-20T04:56:00.738Z,14.01
2022-09-20T04:58:47.570Z,14.05
2022-09-20T05:01:48.473Z,14.11
2022-09-20T05:04:45.748Z,14.18
2022-09-20T05:07:26.724Z,14.21
2022-09-20T05:10:35.269Z,14.23
2022-09-20T05:13:36.603Z,14.29
2022-09-20T05:16:50.711Z,14.37
2022-09-20T05:19:56.206Z,14.45
2022-09-20T05:22:34.985Z,14.51
2022-09-20T05:25:10.245Z,14.58
2022-09-20T05:27:50.847Z,14.67
2022-09-20T05:30:38.335Z,14.79
2022-09-20T05:33:40.856Z,14.89
2022-09-20T05:36:34.814Z,14.96
2022-09-20T05:39:35.758Z,14.95
2022-09-20T05:42:08.236Z,14.98
2022-09-20T05:45:18.701Z,14.99
2022-09-20T05:48:10.399Z,15.07
2022-09-20T05:51:06.658Z,15.13
2022-09-20T05:53:53.570Z,15.20
2022-09-20T05:56:47.245Z,15.30
2022-09-20T05:59:21.952Z,15.40
2022-09-20T06:01:53.734Z,15.40
2022-09-20T06:04:36.494Z,15.36
2022-09-20T06:07:14.450Z,15.35
2022-09-20T06:10:21.950Z,15.38
2022-09-20T06:12:53.615Z,15.40
2022-09-20T06:15:45.333Z,15.44
2022-09-20T06:18:16.891Z,15.50
2022-09-20T06:21:03.923Z,15.55
2022-09-20T06:23:32.848Z,15.62
2022-09-20T06:26:24.622Z,15.67
2022-09-20T06:29:00.011Z,15.73
2022-09-20T06:31:28.542Z,15.78
2022-09-20T06:34:03.136Z,15.82
2022-09-20T06:36:53.160Z,15.84
2022-09-20T06:39:55.546Z,15.88
2022-09-20T06:42:27.055Z,15.91
2022-09-20T06:44:56.183Z,15.91
2022-09-20T06:47:26.511Z,15.95
2022-09-20T06:49:56.019Z,16.01
2022-09-20T06:52:25.219Z,16.09
2022-09-20T06:54:56.138Z,16.17
2022-09-20T06:57:40.533Z,16.25
2022-09-20T07:00:11.965Z,16.26
2022-09-20T07:02:40.509Z,16.31
2022-09-20T07:05:22.476Z,16.37
2022-09-20T07:07:51.232Z,16.44
2022-09-20T07:10:19.932Z,16.49
2022-09-20T07:12:49.628Z,16.53
2022-09-20T07:15:18.215Z,16.61
2022-09-20T07:17:49.258Z,16.69
2022-09-20T07:20:21.515Z,16.74
2022-09-20T07:22:51.650Z,16.75
2022-09-20T07:25:21.333Z,16.74
2022-09-20T07:27:51.410Z,16.76
2022-09-20T07:30:21.771Z,16.79
2022-09-20T07:32:50.698Z,16.83
2022-09-20T07:35:19.482Z,16.90
2022-09-20T07:37:48.205Z,16.98
2022-09-20T07:40:17.697Z,17.06
2022-09-20T07:42:46.360Z,17.14
2022-09-20T07:45:15.309Z,17.19
2022-09-20T07:47:46.807Z,17.24
2022-09-20T07:50:15.801Z,17.29
2022-09-20T07:52:44.595Z,17.33
2022-09-20T07:55:13.300Z,17.35
2022-09-20T07:57:42.677Z,17.41
2022-09-20T08:00:12.083Z,17.48
2022-09-20T08:02:45.339Z,17.57
2022-09-20T08:05:14.049Z,17.66
2022-09-20T08:07:42.705Z,17.71
2022-09-20T08:10:11.388Z,17.74
2022-09-20T08:15:30.209Z,17.88
2022-09-20T08:17:58.693Z,17.92
2022-09-20T08:20:27.500Z,17.99
2022-09-20T08:23:21.981Z,18.04
2022-09-20T08:25:48.588Z,18.07
2022-09-20T08:28:17.269Z,18.07
2022-09-20T08:30:45.779Z,18.13
2022-09-20T08:33:14.364Z,18.18
2022-09-20T08:35:42.950Z,18.23
2022-09-20T08:41:18.058Z,18.29
2022-09-20T08:44:02.723Z,18.25
2022-09-20T08:46:36.967Z,18.23
2022-09-20T08:49:10.929Z,18.18
2022-09-20T08:51:42.853Z,18.21
2022-09-20T08:54:16.359Z,18.30
2022-09-20T08:56:46.784Z,18.38
2022-09-20T08:59:20.486Z,18.44
2022-09-20T09:01:51.548Z,18.56
2022-09-20T09:04:25.429Z,18.69
2022-09-20T09:06:54.046Z,18.62
2022-09-20T09:09:26.296Z,18.59
2022-09-20T09:11:56.339Z,18.54
2022-09-20T09:14:52.134Z,18.44
2022-09-20T09:17:27.755Z,18.40
2022-09-20T09:20:08.644Z,18.54
2022-09-20T09:22:41.844Z,18.63
2022-09-20T09:25:24.426Z,18.65
2022-09-20T09:28:14.958Z,18.68
2022-09-20T09:30:47.280Z,18.72
2022-09-20T09:33:32.109Z,18.69
2022-09-20T09:36:07.391Z,18.56
2022-09-20T09:38:39.503Z,18.53
2022-09-20T09:41:30.074Z,18.50
2022-09-20T09:44:10.758Z,18.51
2022-09-20T09:46:40.585Z,18.56
2022-09-20T09:49:16.067Z,18.66
2022-09-20T09:52:03.046Z,18.76
2022-09-20T09:54:44.917Z,18.98
2022-09-20T09:57:20.718Z,19.16
2022-09-20T10:00:22.219Z,19.18
2022-09-20T10:03:14.698Z,19.12
2022-09-20T10:06:12.157Z,19.14
2022-09-20T10:09:02.566Z,19.24
2022-09-20T10:11:49.879Z,19.43
2022-09-20T10:14:31.828Z,19.69
2022-09-20T10:17:19.264Z,19.83
2022-09-20T10:20:19.629Z,19.80
2022-09-20T10:26:24.640Z,19.77
2022-09-20T10:28:53.558Z,19.74
2022-09-20T10:31:31.853Z,19.63
2022-09-20T10:34:37.241Z,19.54
2022-09-20T10:37:19.736Z,19.65
2022-09-20T10:39:59.501Z,19.75
2022-09-20T10:43:12.814Z,19.88
2022-09-20T10:46:33.217Z,19.86
2022-09-20T10:49:30.753Z,19.77
2022-09-20T10:52:06.020Z,19.82
2022-09-20T10:54:52.948Z,19.84
2022-09-20T10:57:44.432Z,19.87
2022-09-20T11:00:18.406Z,19.86
2022-09-20T11:03:10.037Z,19.88
2022-09-20T11:06:00.096Z,19.87
2022-09-20T11:08:34.942Z,19.73
2022-09-20T11:11:06.545Z,19.64
2022-09-20T11:13:46.155Z,19.66
2022-09-20T11:16:14.740Z,19.72
2022-09-20T11:18:59.357Z,19.80
2022-09-20T11:21:37.929Z,19.82
2022-09-20T11:24:31.450Z,19.76
2022-09-20T11:27:16.128Z,19.76
2022-09-20T11:29:50.480Z,19.82
2022-09-20T11:32:31.302Z,19.90
2022-09-20T11:35:12.972Z,19.94
2022-09-20T11:37:47.825Z,19.94
2022-09-20T11:40:21.179Z,19.93
2022-09-20T11:42:53.017Z,19.94
2022-09-20T11:45:27.562Z,19.88
2022-09-20T11:48:07.694Z,19.79
2022-09-20T11:51:01.112Z,19.69
2022-09-20T11:53:33.329Z,19.51
2022-09-20T11:56:22.882Z,19.33
2022-09-20T11:58:56.088Z,19.32
2022-09-20T12:01:29.878Z,19.36
2022-09-20T12:04:31.684Z,19.39
2022-09-20T12:07:10.553Z,19.46
2022-09-20T12:09:45.769Z,19.51
2022-09-20T12:12:42.597Z,19.55
2022-09-20T12:15:28.242Z,19.60
2022-09-20T12:17:56.724Z,19.57
2022-09-20T12:20:42.674Z,19.59
2022-09-20T12:23:45.421Z,19.60
2022-09-20T12:26:23.015Z,19.65
2022-09-20T12:29:00.344Z,19.72
2022-09-20T12:31:32.531Z,19.77
2022-09-20T12:34:02.854Z,19.76
2022-09-20T12:36:46.658Z,19.70
2022-09-20T12:39:29.447Z,19.63
2022-09-20T12:42:11.115Z,19.62
2022-09-20T12:44:58.238Z,19.61
2022-09-20T12:47:32.030Z,19.56
2022-09-20T12:50:21.385Z,19.52
2022-09-20T12:52:58.372Z,19.44
2022-09-20T12:55:30.360Z,19.40
2022-09-20T12:58:11.309Z,19.37
2022-09-20T13:01:14.094Z,19.38
2022-09-20T13:03:49.544Z,19.39
2022-09-20T13:06:19.571Z,19.43
2022-09-20T13:08:50.370Z,19.48
2022-09-20T13:11:38.728Z,19.48
2022-09-20T13:14:13.069Z,19.51
2022-09-20T13:17:00.067Z,19.53
2022-09-20T13:19:34.873Z,19.53
2022-09-20T13:22:09.661Z,19.55
2022-09-20T13:24:42.802Z,19.54
2022-09-20T13:27:24.854Z,19.54
2022-09-20T13:29:53.956Z,19.55
2022-09-20T13:32:28.114Z,19.52
2022-09-20T13:35:22.960Z,19.46
2022-09-20T13:38:20.601Z,19.42
2022-09-20T13:40:50.898Z,19.42
2022-09-20T13:43:41.960Z,19.41
2022-09-20T13:46:13.098Z,19.36
2022-09-20T13:48:42.820Z,19.29
2022-09-20T13:51:25.870Z,19.24
2022-09-20T13:53:54.932Z,19.18
2022-09-20T13:56:28.936Z,19.11
2022-09-20T13:59:01.214Z,19.06
2022-09-20T14:01:35.915Z,19.03
2022-09-20T14:04:26.426Z,19.02
2022-09-20T14:06:58.084Z,18.99
2022-09-20T14:09:34.873Z,18.97
2022-09-20T14:12:06.545Z,18.95
2022-09-20T14:14:36.621Z,18.93
2022-09-20T14:17:09.758Z,18.92
2022-09-20T14:19:44.206Z,18.95
2022-09-20T14:22:21.144Z,18.98
2022-09-20T14:25:22.373Z,18.96
2022-09-20T14:28:18.051Z,18.95
2022-09-20T14:30:48.885Z,18.93
2022-09-20T14:33:21.209Z,18.91
2022-09-20T14:35:52.136Z,18.90
2022-09-20T14:38:26.206Z,18.88
2022-09-20T14:40:54.895Z,18.85
2022-09-20T14:43:35.208Z,18.80
2022-09-20T14:46:09.201Z,18.77
2022-09-20T14:48:41.599Z,18.73
2022-09-20T14:51:16.548Z,18.69
2022-09-20T14:53:47.348Z,18.69
2022-09-20T14:56:18.314Z,18.68
2022-09-20T14:59:08.418Z,18.65
2022-09-20T15:01:41.738Z,18.62
2022-09-20T15:04:22.081Z,18.62
2022-09-20T15:06:51.867Z,18.64
2022-09-20T15:09:22.333Z,18.64
2022-09-20T15:12:12.379Z,18.63
2022-09-20T15:14:41.895Z,18.58
2022-09-20T15:17:16.023Z,18.53
2022-09-20T15:19:45.223Z,18.48
2022-09-20T15:22:14.453Z,18.44
2022-09-20T15:24:43.500Z,18.41
2022-09-20T15:27:13.413Z,18.40
2022-09-20T15:29:42.209Z,18.39
2022-09-20T15:32:11.482Z,18.38
2022-09-20T15:34:40.094Z,18.35
2022-09-20T15:37:09.171Z,18.31
2022-09-20T15:39:37.770Z,18.30
2022-09-20T15:42:07.584Z,18.30
2022-09-20T15:44:36.471Z,18.28
2022-09-20T15:47:05.267Z,18.28
2022-09-20T15:49:34.055Z,18.28
2022-09-20T15:52:03.025Z,18.26
2022-09-20T15:54:31.839Z,18.26
2022-09-20T15:57:00.724Z,18.24
2022-09-20T15:59:29.673Z,18.21
2022-09-20T16:01:59.949Z,18.18
2022-09-20T16:04:28.579Z,18.16
2022-09-20T16:06:57.468Z,18.16
2022-09-20T16:09:26.824Z,18.15
2022-09-20T16:11:59.399Z,18.14
2022-09-20T16:14:28.205Z,18.13
2022-09-20T16:16:56.863Z,18.11
2022-09-20T16:19:26.591Z,18.10
2022-09-20T16:21:58.559Z,18.08
2022-09-20T16:24:35.951Z,18.05
2022-09-20T16:27:06.825Z,18.03
2022-09-20T16:29:35.665Z,18.00
2022-09-20T16:32:05.789Z,17.96
2022-09-20T16:34:36.900Z,17.92
2022-09-20T16:37:12.277Z,17.88
2022-09-20T16:39:42.274Z,17.83
2022-09-20T16:42:12.825Z,17.79
2022-09-20T16:44:43.405Z,17.74
2022-09-20T16:47:18.496Z,17.71
2022-09-20T16:49:47.687Z,17.69
2022-09-20T16:52:16.989Z,17.67
2022-09-20T16:54:46.603Z,17.65
2022-09-20T16:57:16.002Z,17.63
2022-09-20T16:59:45.820Z,17.60
2022-09-20T17:02:14.909Z,17.57
2022-09-20T17:04:44.142Z,17.53
2022-09-20T17:07:13.103Z,17.50
2022-09-20T17:09:41.790Z,17.46
2022-09-20T17:12:10.389Z,17.44
2022-09-20T17:14:38.901Z,17.41
2022-09-20T17:17:07.437Z,17.37
2022-09-20T17:19:36.126Z,17.34
2022-09-20T17:22:04.708Z,17.30
2022-09-20T17:24:34.109Z,17.27
2022-09-20T17:27:04.416Z,17.24
2022-09-20T17:29:33.334Z,17.19
2022-09-20T17:32:02.556Z,17.15
2022-09-20T17:34:32.009Z,17.11
2022-09-20T17:37:02.036Z,17.07
2022-09-20T17:39:30.680Z,17.03
2022-09-20T17:41:59.259Z,16.98
2022-09-20T17:44:28.590Z,16.94
2022-09-20T17:46:57.616Z,16.90
2022-09-20T17:49:28.117Z,16.86
2022-09-20T17:51:57.183Z,16.83
2022-09-20T17:54:26.524Z,16.79
2022-09-20T17:56:56.396Z,16.75
2022-09-20T17:59:25.569Z,16.71
2022-09-20T18:01:54.835Z,16.67
2022-09-20T18:04:25.454Z,16.63
2022-09-20T18:06:55.884Z,16.58
2022-09-20T18:09:26.178Z,16.53
2022-09-20T18:11:56.217Z,16.49
2022-09-20T18:14:27.964Z,16.45
2022-09-20T18:17:01.588Z,16.41
2022-09-20T18:19:34.576Z,16.37
2022-09-20T18:22:04.440Z,16.32
2022-09-20T18:24:33.235Z,16.28
2022-09-20T18:27:01.874Z,16.24
2022-09-20T18:29:36.839Z,16.19
2022-09-20T18:32:07.606Z,16.15
2022-09-20T18:34:36.237Z,16.11
2022-09-20T18:37:14.456Z,16.06
2022-09-20T18:39:44.221Z,16.00
2022-09-20T18:42:12.761Z,15.95
2022-09-20T18:44:43.757Z,15.90
2022-09-20T18:47:12.399Z,15.88
2022-09-20T18:49:41.136Z,15.83
2022-09-20T18:52:12.078Z,15.76
2022-09-20T18:54:41.159Z,15.72
2022-09-20T18:57:11.037Z,15.68
2022-09-20T18:59:46.648Z,15.65
2022-09-20T19:02:25.964Z,15.61
2022-09-20T19:05:00.472Z,15.57
2022-09-20T19:07:32.116Z,15.54
2022-09-20T19:10:06.895Z,15.50
2022-09-20T19:12:43.138Z,15.47
2022-09-20T19:15:30.076Z,15.44
2022-09-20T19:18:26.354Z,15.40
2022-09-20T19:21:16.585Z,15.36
2022-09-20T19:23:47.880Z,15.32
2022-09-20T19:26:23.883Z,15.27
2022-09-20T19:28:58.101Z,15.23
2022-09-20T19:31:32.779Z,15.19
2022-09-20T19:34:05.098Z,15.16
2022-09-20T19:36:50.268Z,15.14
2022-09-20T19:39:30.907Z,15.09
2022-09-20T19:42:07.441Z,15.04
2022-09-20T19:44:48.517Z,14.97
2022-09-20T19:47:48.752Z,14.92
2022-09-20T19:50:45.674Z,14.88
2022-09-20T19:53:17.256Z,14.85
2022-09-20T19:55:56.761Z,14.82
2022-09-20T19:58:26.482Z,14.79
2022-09-20T20:00:55.574Z,14.76
2022-09-20T20:03:26.509Z,14.74
2022-09-20T20:06:08.376Z,14.71
2022-09-20T20:08:51.114Z,14.66
2022-09-20T20:11:44.107Z,14.62
2022-09-20T20:14:33.244Z,14.58
2022-09-20T20:17:29.525Z,14.55
2022-09-20T20:20:15.106Z,14.53
2022-09-20T20:23:01.799Z,14.50
2022-09-20T20:25:35.164Z,14.47
2022-09-20T20:28:03.785Z,14.43
2022-09-20T20:30:32.493Z,14.39
2022-09-20T20:33:01.265Z,14.35
2022-09-20T20:35:29.831Z,14.32
2022-09-20T20:37:58.503Z,14.30
2022-09-20T20:40:27.613Z,14.29
2022-09-20T20:43:02.943Z,14.27
2022-09-20T20:45:31.493Z,14.25
2022-09-20T20:48:00.331Z,14.23
2022-09-20T20:50:29.910Z,14.19
2022-09-20T20:52:58.638Z,14.11
2022-09-20T20:55:27.223Z,14.09
2022-09-20T20:57:59.876Z,14.06
2022-09-20T21:00:28.869Z,14.04
2022-09-20T21:02:59.424Z,14.02
2022-09-20T21:05:29.202Z,14.00
2022-09-20T21:07:58.506Z,13.97
2022-09-20T21:10:27.095Z,13.95
2022-09-20T21:12:55.671Z,13.94
2022-09-20T21:15:24.218Z,13.91
2022-09-20T21:17:53.878Z,13.89
2022-09-20T21:20:22.762Z,13.85
2022-09-20T21:22:51.383Z,13.83
2022-09-20T21:25:19.858Z,13.81
2022-09-20T21:27:49.743Z,13.78
2022-09-20T21:30:18.488Z,13.76
2022-09-20T21:32:47.074Z,13.74
2022-09-20T21:35:15.690Z,13.71
2022-09-20T21:37:45.327Z,13.69
2022-09-20T21:40:13.961Z,13.65
2022-09-20T21:42:42.467Z,13.63
2022-09-20T21:45:11.350Z,13.60
2022-09-20T21:47:39.843Z,13.58
2022-09-20T21:50:09.092Z,13.55
2022-09-20T21:52:37.832Z,13.52
2022-09-20T21:55:10.950Z,13.49
2022-09-20T21:57:39.995Z,13.47
2022-09-20T22:00:09.711Z,13.46
2022-09-20T22:02:41.303Z,13.45
2022-09-20T22:05:12.183Z,13.42
2022-09-20T22:07:41.405Z,13.40
2022-09-20T22:10:10.085Z,13.36
2022-09-20T22:12:38.621Z,13.33
2022-09-20T22:15:08.016Z,13.31
2022-09-20T22:17:36.531Z,13.29
2022-09-20T22:20:05.703Z,13.26
2022-09-20T22:22:34.141Z,13.24
2022-09-20T22:25:02.565Z,13.22
2022-09-20T22:27:31.157Z,13.20
2022-09-20T22:30:04.574Z,13.19
2022-09-20T22:32:33.849Z,13.16
2022-09-20T22:35:02.466Z,13.15
2022-09-20T22:37:30.893Z,13.13
2022-09-20T22:39:59.554Z,13.11
2022-09-20T22:42:28.114Z,13.08
2022-09-20T22:44:57.264Z,13.05
2022-09-20T22:47:25.944Z,13.02
2022-09-20T22:49:54.407Z,12.99
2022-09-20T22:52:23.066Z,12.98
2022-09-20T22:54:51.583Z,12.96
2022-09-20T22:57:20.407Z,12.95
2022-09-20T22:59:49.001Z,12.93
2022-09-20T23:02:17.602Z,12.91
2022-09-20T23:04:46.213Z,12.89
2022-09-20T23:07:14.782Z,12.88
2022-09-20T23:09:43.277Z,12.87
2022-09-20T23:12:11.842Z,12.86
2022-09-20T23:14:40.344Z,12.84
2022-09-20T23:17:08.829Z,12.83
2022-09-20T23:19:37.416Z,12.82
2022-09-20T23:22:06.043Z,12.80
2022-09-20T23:24:34.722Z,12.78
2022-09-20T23:27:03.383Z,12.76
2022-09-20T23:29:32.883Z,12.75
2022-09-20T23:32:01.664Z,12.74
2022-09-20T23:34:30.187Z,12.72
2022-09-20T23:36:58.812Z,12.69
2022-09-20T23:39:28.142Z,12.67
2022-09-20T23:41:56.673Z,12.65
2022-09-20T23:44:25.377Z,12.64
2022-09-20T23:46:53.872Z,12.61
2022-09-20T23:49:22.540Z,12.60
2022-09-20T23:51:51.223Z,12.58
2022-09-20T23:54:19.793Z,12.56
2022-09-20T23:56:48.854Z,12.53
2022-09-20T23:59:18.069Z,12.51
